TJBQ/BQN METAR and TAF weather

Enter ICAO airport designator
Station Type Date Time Source
TJBQ METAR 2019/12/10 19:50 UTC NOAA

TJBQ 101950Z 09016G23KT 10SM CLR 28/ A3000


Station Type Date Time Source
TJBQ Decoded METAR 2019/12/10 19:50 UTC NOAA

Aquadilla, Rafael Hernandez Airport, PR, United States (TJBQ) 18-30N 067-08W 69M
Dec 10, 2019 - 02:50 PM EST / 2019.12.10 1950 UTC
Wind: from the E (090 degrees) at 18 MPH (16 KT) gusting to 26 MPH (23 KT):0
Visibility: 10 mile(s):0
Sky conditions: clear
Temperature: 82 F (28 C)
Pressure (altimeter): 30 in. Hg (1015 hPa)
ob: TJBQ 101950Z 09016G23KT 10SM CLR 28/ A3000
cycle: 20

Station Type Date Time Source
TJBQ TAF 2019/12/10 18:48 UTC NOAA

TAF TJBQ 101737Z 1018/1118 10012G19KT P6SM SCT024 SCT040
FM102300 10007KT P6SM FEW040
FM111400 08014KT P6SM SCT025
FM111700 08018G25KT P6SM VCSH SCT025 SCT040
AMD NOT SKED 1102/1111

Example: see airport list